Time;durP1;ratioP1;P1;durP2;ratioP2;P2;SDS_P1;SDS_P2;PMS_P1;PMS_P2;Temp;Humidity;BMP_temperature;BMP_pressure;BME280_temperature;BME280_humidity;BME280_pressure;Samples;Min_cycle;Max_cycle;Signal;HPM_P1;HPM_P2
2021/01/14 00:02:05;;;;;;;38.70;28.23;;;5.70;69.10;;;;;;5076341;28;20052;-58
2021/01/14 00:04:31;;;;;;;37.87;28.37;;;5.70;69.20;;;;;;5080671;28;20085;-56
2021/01/14 00:06:57;;;;;;;37.40;26.37;;;5.70;68.80;;;;;;5077991;28;20028;-57
2021/01/14 00:09:23;;;;;;;36.07;26.93;;;5.70;67.90;;;;;;5082977;28;20044;-58
2021/01/14 00:11:49;;;;;;;40.83;26.97;;;5.70;68.10;;;;;;5070537;28;20039;-55
2021/01/14 00:14:15;;;;;;;38.80;26.83;;;5.70;67.70;;;;;;5061274;28;20047;-56
2021/01/14 00:16:41;;;;;;;34.80;26.27;;;5.70;67.80;;;;;;5077821;28;20063;-56
2021/01/14 00:19:07;;;;;;;38.50;26.60;;;5.70;67.50;;;;;;5081027;28;20494;-56
2021/01/14 00:21:44;;;;;;;36.53;26.60;;;5.60;67.50;;;;;;5075177;28;20032;-54
2021/01/14 00:24:10;;;;;;;40.40;27.70;;;5.70;67.50;;;;;;5079120;28;20036;-54
2021/01/14 00:26:36;;;;;;;41.30;27.47;;;5.60;67.90;;;;;;5077022;28;20619;-55
2021/01/14 00:29:03;;;;;;;36.97;27.10;;;5.60;67.70;;;;;;5081914;28;20032;-55
2021/01/14 00:31:29;;;;;;;37.00;25.90;;;5.60;67.60;;;;;;5076885;28;20036;-56
2021/01/14 00:33:55;;;;;;;36.20;26.40;;;5.70;68.10;;;;;;5074687;28;20496;-53
2021/01/14 00:36:33;;;;;;;40.13;27.10;;;5.70;67.30;;;;;;5082321;28;20339;-54
2021/01/14 00:39:02;;;;;;;38.77;26.50;;;5.70;67.50;;;;;;5077082;28;20052;-59
2021/01/14 00:41:28;;;;;;;37.50;27.07;;;5.60;68.10;;;;;;5061663;28;20036;-55
2021/01/14 00:43:54;;;;;;;34.30;24.83;;;5.70;68.70;;;;;;5061342;28;20089;-56
2021/01/14 00:46:20;;;;;;;36.67;25.33;;;5.70;66.90;;;;;;5076499;28;20035;-56
2021/01/14 00:48:47;;;;;;;35.73;25.07;;;5.70;66.80;;;;;;5073673;28;20032;-56
2021/01/14 00:51:13;;;;;;;35.47;24.03;;;5.80;66.90;;;;;;5080766;28;20040;-56
2021/01/14 00:53:39;;;;;;;32.50;23.10;;;5.70;65.90;;;;;;5063840;28;20770;-58
2021/01/14 00:56:06;;;;;;;32.47;22.87;;;5.70;66.70;;;;;;5072196;28;20474;-54
2021/01/14 00:58:34;;;;;;;34.10;24.07;;;5.70;65.40;;;;;;5072865;28;20119;-53
2021/01/14 01:01:00;;;;;;;32.93;24.07;;;5.70;65.10;;;;;;5077625;28;20083;-53
2021/01/14 01:03:26;;;;;;;35.40;23.83;;;5.80;64.70;;;;;;5073650;28;20215;-56
2021/01/14 01:05:52;;;;;;;36.03;24.20;;;5.70;65.80;;;;;;5077317;28;20166;-55
2021/01/14 01:08:18;;;;;;;37.87;24.00;;;5.80;65.30;;;;;;5072770;28;20051;-56
2021/01/14 01:10:43;;;;;;;33.60;23.60;;;5.70;65.00;;;;;;5079799;28;20498;-56
2021/01/14 01:13:09;;;;;;;34.87;23.63;;;5.70;65.70;;;;;;5077738;28;20553;-57
2021/01/14 01:15:35;;;;;;;40.50;24.70;;;5.70;66.10;;;;;;5078177;28;20401;-56
2021/01/14 01:18:00;;;;;;;36.23;24.47;;;5.70;65.90;;;;;;5076633;28;20069;-57
2021/01/14 01:20:26;;;;;;;33.07;24.13;;;5.70;65.20;;;;;;5075857;28;20098;-57
2021/01/14 01:22:54;;;;;;;36.60;24.60;;;5.70;65.50;;;;;;5078927;28;20033;-55
2021/01/14 01:25:20;;;;;;;31.63;23.43;;;5.70;65.70;;;;;;5073502;28;20025;-52
2021/01/14 01:27:45;;;;;;;34.37;24.80;;;5.60;65.90;;;;;;5081621;28;20067;-54
2021/01/14 01:30:12;;;;;;;35.10;23.57;;;5.70;66.40;;;;;;5077336;28;20107;-55
2021/01/14 01:32:37;;;;;;;35.07;23.73;;;5.70;66.50;;;;;;5080282;28;20045;-54
2021/01/14 01:35:04;;;;;;;34.30;23.47;;;5.70;66.00;;;;;;5073863;28;20043;-55
2021/01/14 01:37:29;;;;;;;32.80;22.57;;;5.70;65.80;;;;;;5079903;28;20040;-55
2021/01/14 01:39:55;;;;;;;35.87;24.20;;;5.70;65.50;;;;;;5072675;28;20410;-54
2021/01/14 01:42:21;;;;;;;30.53;22.50;;;5.70;64.80;;;;;;5078724;28;20044;-56
2021/01/14 01:44:46;;;;;;;38.00;23.27;;;5.70;65.80;;;;;;5060156;28;20047;-53
2021/01/14 01:47:12;;;;;;;35.67;22.07;;;5.70;64.70;;;;;;5081500;28;20047;-55
2021/01/14 01:49:39;;;;;;;34.53;23.57;;;5.70;65.30;;;;;;5075092;28;20043;-55
2021/01/14 01:52:07;;;;;;;37.07;22.93;;;5.70;65.50;;;;;;5080923;28;20106;-57
2021/01/14 01:54:34;;;;;;;34.87;23.33;;;5.70;65.60;;;;;;5078286;28;20044;-56
2021/01/14 01:57:01;;;;;;;35.70;22.67;;;5.70;64.90;;;;;;5072760;28;20131;-55
2021/01/14 01:59:30;;;;;;;36.60;22.97;;;5.70;65.90;;;;;;5080571;28;20097;-56
2021/01/14 02:01:55;;;;;;;34.00;22.87;;;5.60;65.70;;;;;;5071117;28;20036;-54
2021/01/14 02:04:21;;;;;;;36.20;25.90;;;5.60;66.20;;;;;;5078743;28;20054;-57
2021/01/14 02:06:57;;;;;;;35.33;26.03;;;5.60;66.60;;;;;;5071420;28;20041;-57
2021/01/14 02:09:25;;;;;;;36.70;27.00;;;5.70;66.80;;;;;;5079147;28;20040;-56
2021/01/14 02:12:04;;;;;;;40.10;28.50;;;5.60;67.40;;;;;;5059230;28;20151;-57
2021/01/14 02:14:31;;;;;;;44.40;28.87;;;5.60;68.80;;;;;;5074061;28;20482;-55
2021/01/14 02:16:57;;;;;;;43.20;28.80;;;5.60;68.10;;;;;;5054493;28;20071;-56
2021/01/14 02:19:46;;;;;;;42.40;28.13;;;5.60;68.70;;;;;;5080580;28;20090;-53
2021/01/14 02:22:16;;;;;;;39.50;28.47;;;5.60;69.30;;;;;;5048688;28;20032;-57
2021/01/14 02:25:01;;;;;;;42.37;28.27;;;5.60;69.50;;;;;;5066095;28;20052;-57
2021/01/14 02:27:28;;;;;;;36.77;27.70;;;5.60;69.50;;;;;;5075172;28;20032;-56
2021/01/14 02:29:57;;;;;;;40.73;29.00;;;5.50;69.90;;;;;;5059665;28;20359;-54
2021/01/14 02:32:23;;;;;;;41.50;28.43;;;5.50;69.60;;;;;;5062399;28;20412;-56
2021/01/14 02:34:50;;;;;;;41.67;29.03;;;5.60;69.70;;;;;;5080585;28;20080;-56
2021/01/14 02:37:16;;;;;;;39.97;27.73;;;5.50;70.00;;;;;;5071067;28;20482;-54
2021/01/14 02:39:42;;;;;;;45.20;29.07;;;5.50;70.50;;;;;;5078779;28;20438;-56
2021/01/14 02:42:08;;;;;;;38.47;28.57;;;5.50;70.20;;;;;;5078194;28;20066;-56
2021/01/14 02:44:33;;;;;;;39.30;27.23;;;5.50;69.70;;;;;;5075154;28;20054;-55
2021/01/14 02:47:01;;;;;;;38.03;27.07;;;5.40;69.80;;;;;;5078081;28;20068;-54
2021/01/14 02:49:28;;;;;;;34.97;25.57;;;5.40;69.30;;;;;;5078881;28;20040;-54
2021/01/14 02:51:59;;;;;;;36.17;24.07;;;5.40;69.00;;;;;;5071596;28;20398;-56
2021/01/14 02:54:26;;;;;;;35.57;24.93;;;5.40;67.70;;;;;;5076728;28;20049;-55
2021/01/14 02:56:51;;;;;;;34.57;24.40;;;5.40;68.20;;;;;;5079503;28;20048;-57
2021/01/14 02:59:17;;;;;;;35.10;25.23;;;5.40;68.20;;;;;;5073280;28;20071;-57
2021/01/14 03:01:44;;;;;;;36.17;24.23;;;5.40;67.60;;;;;;5080133;28;20421;-57
2021/01/14 03:04:09;;;;;;;35.77;26.20;;;5.40;67.60;;;;;;5060227;28;20454;-56
2021/01/14 03:06:35;;;;;;;43.13;26.60;;;5.30;67.60;;;;;;5079771;28;20320;-54
2021/01/14 03:09:01;;;;;;;41.07;25.57;;;5.30;67.30;;;;;;5077305;28;20394;-55
2021/01/14 03:11:29;;;;;;;33.33;24.37;;;5.30;67.50;;;;;;5081008;28;20032;-57
2021/01/14 03:13:55;;;;;;;35.93;25.50;;;5.10;65.80;;;;;;5063496;28;20398;-54
2021/01/14 03:16:21;;;;;;;35.70;23.83;;;5.20;67.20;;;;;;5078360;28;20036;-56
2021/01/14 03:18:51;;;;;;;35.87;23.93;;;5.10;66.10;;;;;;5074286;28;20098;-56
2021/01/14 03:21:26;;;;;;;32.23;24.27;;;5.10;66.60;;;;;;5080788;28;20438;-55
2021/01/14 03:23:52;;;;;;;33.50;23.97;;;5.20;66.30;;;;;;5071862;28;20128;-57
2021/01/14 03:26:19;;;;;;;35.03;23.67;;;5.10;66.60;;;;;;5081174;28;20508;-56
2021/01/14 03:28:45;;;;;;;33.10;23.37;;;5.10;66.50;;;;;;5076629;28;20042;-57
2021/01/14 03:31:12;;;;;;;35.00;23.50;;;5.10;66.70;;;;;;5078151;28;20040;-55
2021/01/14 03:33:39;;;;;;;30.83;22.90;;;5.10;66.50;;;;;;5075668;28;20131;-55
2021/01/14 03:36:06;;;;;;;31.37;23.50;;;5.10;66.50;;;;;;5074230;28;20405;-52
2021/01/14 03:38:33;;;;;;;36.47;23.67;;;5.20;66.10;;;;;;5078607;28;20559;-55
2021/01/14 03:40:59;;;;;;;35.67;23.33;;;5.00;65.10;;;;;;5077068;28;20418;-55
2021/01/14 03:43:25;;;;;;;34.90;23.93;;;5.10;65.40;;;;;;5080043;28;20045;-52
2021/01/14 03:45:51;;;;;;;34.43;24.03;;;5.00;65.40;;;;;;5076249;28;20059;-55
2021/01/14 03:48:16;;;;;;;34.50;23.10;;;5.10;66.30;;;;;;5076454;28;20032;-55
2021/01/14 03:50:42;;;;;;;38.63;24.83;;;5.10;66.20;;;;;;5075923;28;20052;-56
2021/01/14 03:53:08;;;;;;;33.27;23.20;;;5.10;65.90;;;;;;5080407;28;20037;-57
2021/01/14 03:55:34;;;;;;;33.23;23.23;;;5.10;66.10;;;;;;5074614;28;20032;-56
2021/01/14 03:57:59;;;;;;;32.80;24.20;;;5.10;65.60;;;;;;5085633;28;20486;-60
2021/01/14 04:00:25;;;;;;;37.47;24.77;;;5.10;65.50;;;;;;5083233;28;20059;-51
2021/01/14 04:02:51;;;;;;;37.27;25.07;;;5.10;65.50;;;;;;5082871;28;20510;-56
2021/01/14 04:05:16;;;;;;;31.17;22.80;;;5.10;64.60;;;;;;5076341;28;20082;-56
2021/01/14 04:07:43;;;;;;;38.33;25.67;;;5.00;64.90;;;;;;5082248;28;20056;-55
2021/01/14 04:10:09;;;;;;;40.63;24.00;;;4.90;65.50;;;;;;5076872;28;20401;-57
2021/01/14 04:12:34;;;;;;;36.73;25.33;;;5.00;65.60;;;;;;5084901;28;20040;-54
2021/01/14 04:15:00;;;;;;;34.43;24.53;;;4.90;65.00;;;;;;5077732;28;20051;-55
2021/01/14 04:17:26;;;;;;;33.23;24.63;;;4.90;65.20;;;;;;5076575;28;20147;-52
2021/01/14 04:19:53;;;;;;;32.20;23.63;;;5.00;65.30;;;;;;5085932;28;20077;-56
2021/01/14 04:22:18;;;;;;;34.93;25.20;;;4.90;65.60;;;;;;5076696;28;20036;-52
2021/01/14 04:24:44;;;;;;;36.93;25.73;;;4.90;65.30;;;;;;5078129;28;20432;-53
2021/01/14 04:27:10;;;;;;;35.97;25.13;;;5.00;65.20;;;;;;5078147;28;20039;-56
2021/01/14 04:29:36;;;;;;;37.50;24.73;;;5.00;65.00;;;;;;5080232;28;20071;-55
2021/01/14 04:32:01;;;;;;;39.23;25.77;;;5.10;65.70;;;;;;5071182;28;20042;-55
2021/01/14 04:34:27;;;;;;;33.27;24.27;;;5.00;64.80;;;;;;5082215;28;20032;-56
2021/01/14 04:36:57;;;;;;;35.20;23.50;;;4.90;63.70;;;;;;5076317;28;20115;-53
2021/01/14 04:39:22;;;;;;;32.20;23.50;;;4.90;63.90;;;;;;5077991;28;20216;-55
2021/01/14 04:41:51;;;;;;;34.80;24.27;;;5.00;65.00;;;;;;5075461;28;20048;-55
2021/01/14 04:44:17;;;;;;;32.93;24.23;;;4.90;64.90;;;;;;5080230;28;20050;-56
2021/01/14 04:46:51;;;;;;;33.83;23.30;;;4.90;64.10;;;;;;5076857;28;20451;-56
2021/01/14 04:49:17;;;;;;;33.77;23.23;;;4.80;64.60;;;;;;5081586;28;20111;-54
2021/01/14 04:51:45;;;;;;;31.17;23.87;;;4.90;65.10;;;;;;5077535;28;20048;-55
2021/01/14 04:54:15;;;;;;;34.43;24.10;;;4.90;63.80;;;;;;5079883;28;20072;-53
2021/01/14 04:56:46;;;;;;;34.00;25.03;;;4.90;65.20;;;;;;5081230;28;20107;-52
2021/01/14 04:59:17;;;;;;;29.60;22.73;;;4.90;64.80;;;;;;5082704;28;20040;-53
2021/01/14 05:01:48;;;;;;;34.17;23.67;;;4.70;64.40;;;;;;5080574;28;20063;-54
2021/01/14 05:04:20;;;;;;;35.40;24.23;;;4.80;65.20;;;;;;5078908;28;20051;-53
2021/01/14 05:06:58;;;;;;;33.40;22.60;;;4.80;64.70;;;;;;5082467;28;20040;-55
2021/01/14 05:09:38;;;;;;;34.83;23.07;;;4.80;64.20;;;;;;5076515;28;20405;-53
2021/01/14 05:12:06;;;;;;;35.87;25.53;;;4.70;63.40;;;;;;5078128;28;20113;-54
2021/01/14 05:14:32;;;;;;;42.23;26.27;;;4.60;65.60;;;;;;5077718;28;20482;-55
2021/01/14 05:16:58;;;;;;;40.97;26.90;;;4.70;65.80;;;;;;5083466;28;20116;-51
2021/01/14 05:19:23;;;;;;;34.90;26.43;;;4.70;66.30;;;;;;5075890;28;20906;-54
2021/01/14 05:21:51;;;;;;;37.80;26.87;;;4.80;66.70;;;;;;5078693;28;20036;-56
2021/01/14 05:24:16;;;;;;;40.87;27.23;;;4.80;66.60;;;;;;5076211;28;20036;-54
2021/01/14 05:26:43;;;;;;;42.17;27.67;;;4.70;67.60;;;;;;5079305;28;20040;-54
2021/01/14 05:29:17;;;;;;;38.40;27.50;;;4.80;67.70;;;;;;5078081;28;20048;-56
2021/01/14 05:31:47;;;;;;;38.90;28.00;;;4.60;68.30;;;;;;5063798;28;20040;-56
2021/01/14 05:34:14;;;;;;;37.20;27.83;;;4.70;68.70;;;;;;5077353;28;20028;-56
2021/01/14 05:37:03;;;;;;;38.10;27.53;;;4.60;68.70;;;;;;5082502;28;20089;-56
2021/01/14 05:39:30;;;;;;;40.33;30.13;;;4.70;69.10;;;;;;5060416;28;20608;-57
2021/01/14 05:41:56;;;;;;;43.57;28.07;;;4.60;69.40;;;;;;5078842;28;20040;-53
2021/01/14 05:44:36;;;;;;;38.03;27.73;;;4.70;69.90;;;;;;5072716;28;20055;-56
2021/01/14 05:47:21;;;;;;;38.50;27.77;;;4.70;70.20;;;;;;5081052;28;20493;-53
2021/01/14 05:50:13;;;;;;;41.40;26.63;;;4.80;70.00;;;;;;5076894;28;20121;-53
2021/01/14 06:02:44;;;;;;;43.13;29.13;;;4.70;71.60;;;;;;5023284;28;20082;-57
2021/01/14 06:05:32;;;;;;;43.27;29.47;;;4.60;71.70;;;;;;5070475;28;20035;-54
2021/01/14 06:08:01;;;;;;;48.43;31.90;;;4.60;71.80;;;;;;5064495;28;20048;-56
2021/01/14 06:10:33;;;;;;;43.37;28.90;;;4.70;71.80;;;;;;5073003;28;20036;-58
2021/01/14 06:12:59;;;;;;;37.93;28.23;;;4.80;72.20;;;;;;5076038;28;20052;-56
2021/01/14 06:15:25;;;;;;;37.50;27.47;;;4.70;72.00;;;;;;5075770;28;20439;-57
2021/01/14 06:17:53;;;;;;;41.33;29.10;;;4.80;71.80;;;;;;5074105;28;20059;-54
2021/01/14 06:20:19;;;;;;;41.00;28.40;;;4.70;71.30;;;;;;5070707;28;20448;-54
2021/01/14 06:22:44;;;;;;;42.17;28.80;;;4.70;72.00;;;;;;5060090;28;20029;-55
2021/01/14 06:25:11;;;;;;;38.70;27.40;;;4.70;71.90;;;;;;5072399;28;20044;-55
2021/01/14 06:27:37;;;;;;;38.93;28.17;;;4.60;71.90;;;;;;5079438;28;20036;-55
2021/01/14 06:30:08;;;;;;;41.37;29.47;;;4.60;72.20;;;;;;5079028;28;20040;-55
2021/01/14 06:32:36;;;;;;;42.67;28.30;;;4.70;72.30;;;;;;5074548;28;20036;-56
2021/01/14 06:35:02;;;;;;;34.50;26.50;;;4.70;71.90;;;;;;5082802;28;20081;-58
2021/01/14 06:37:27;;;;;;;38.20;27.83;;;4.70;71.80;;;;;;5075430;28;20039;-57
2021/01/14 06:39:55;;;;;;;37.97;27.33;;;4.70;71.90;;;;;;5079220;28;20041;-55
2021/01/14 06:42:32;;;;;;;38.97;27.93;;;4.50;71.20;;;;;;5074765;28;20047;-57
2021/01/14 06:45:06;;;;;;;36.93;26.80;;;4.60;71.40;;;;;;5080195;28;20040;-53
2021/01/14 06:47:40;;;;;;;36.90;26.08;;;4.70;72.00;;;;;;5075604;28;20040;-56
2021/01/14 06:50:17;;;;;;;35.67;24.97;;;4.60;71.70;;;;;;5080102;28;20055;-56
2021/01/14 06:52:49;;;;;;;33.43;24.73;;;4.70;72.00;;;;;;5075232;28;20032;-57
2021/01/14 06:55:18;;;;;;;37.97;24.60;;;4.70;72.10;;;;;;5076584;28;20792;-55
2021/01/14 06:58:11;;;;;;;38.10;26.13;;;4.60;72.00;;;;;;5077073;28;20123;-56
2021/01/14 07:00:39;;;;;;;33.73;24.63;;;4.70;72.40;;;;;;5054114;28;20032;-55
2021/01/14 07:03:19;;;;;;;36.03;24.67;;;4.70;72.10;;;;;;5072523;28;20130;-54
2021/01/14 07:05:54;;;;;;;35.23;25.50;;;4.70;72.10;;;;;;5081366;28;20110;-57
2021/01/14 07:08:35;;;;;;;37.63;24.33;;;4.80;72.10;;;;;;5074902;28;20044;-53
2021/01/14 07:11:15;;;;;;;31.60;23.03;;;4.90;72.10;;;;;;5073379;28;20135;-58
2021/01/14 07:13:45;;;;;;;33.57;23.43;;;4.90;71.60;;;;;;5074631;28;20040;-56
2021/01/14 07:16:17;;;;;;;33.77;23.60;;;4.90;71.50;;;;;;5076332;28;20486;-53
2021/01/14 07:18:46;;;;;;;32.23;23.50;;;4.90;71.70;;;;;;5072145;28;20048;-57
2021/01/14 07:21:31;;;;;;;31.07;22.63;;;4.90;71.70;;;;;;5079908;28;20055;-57
2021/01/14 07:24:06;;;;;;;31.08;22.10;;;4.90;71.60;;;;;;5074655;28;20051;-53
2021/01/14 07:26:34;;;;;;;31.70;23.57;;;4.90;72.10;;;;;;5080711;28;20040;-57
2021/01/14 07:29:04;;;;;;;33.27;22.17;;;5.00;72.20;;;;;;5077988;28;20510;-54
2021/01/14 07:31:31;;;;;;;33.20;24.20;;;5.00;73.10;;;;;;5082042;28;20071;-57
2021/01/14 07:33:56;;;;;;;32.57;23.77;;;5.00;72.10;;;;;;5077011;28;20157;-55
2021/01/14 07:36:25;;;;;;;29.10;22.13;;;5.00;72.00;;;;;;5084768;28;20486;-57
2021/01/14 07:38:53;;;;;;;31.10;20.63;;;5.00;71.80;;;;;;5075246;28;20076;-57
2021/01/14 07:41:19;;;;;;;30.63;21.27;;;5.00;71.30;;;;;;5080995;28;20036;-58
2021/01/14 07:43:45;;;;;;;32.10;20.00;;;5.10;72.20;;;;;;5060285;28;20491;-55
2021/01/14 07:46:22;;;;;;;29.60;21.07;;;5.20;72.50;;;;;;5079462;28;20127;-56
2021/01/14 07:48:50;;;;;;;27.13;20.57;;;5.20;71.80;;;;;;5077547;28;20524;-56
2021/01/14 07:51:16;;;;;;;34.23;21.47;;;5.20;70.90;;;;;;5081703;28;20409;-56
2021/01/14 07:53:42;;;;;;;30.00;20.97;;;5.20;71.50;;;;;;5075131;28;20097;-58
2021/01/14 07:56:25;;;;;;;27.40;19.43;;;5.30;71.90;;;;;;5079956;28;20038;-55
2021/01/14 07:58:55;;;;;;;27.53;19.43;;;5.40;70.80;;;;;;5080983;28;20051;-57
2021/01/14 08:01:22;;;;;;;29.50;19.67;;;5.30;71.30;;;;;;5081073;28;20066;-56
2021/01/14 08:03:48;;;;;;;27.37;18.73;;;5.40;71.10;;;;;;5081377;28;20048;-56
2021/01/14 08:06:35;;;;;;;27.83;17.90;;;5.50;71.20;;;;;;5074944;28;20486;-56
2021/01/14 08:09:11;;;;;;;25.57;19.17;;;5.50;70.70;;;;;;5081408;28;20577;-56
2021/01/14 08:11:54;;;;;;;25.93;17.37;;;5.50;70.80;;;;;;5080306;28;20405;-56
2021/01/14 08:14:21;;;;;;;27.03;17.63;;;5.60;70.80;;;;;;5083495;28;20446;-55
2021/01/14 08:16:54;;;;;;;27.53;18.40;;;5.60;70.80;;;;;;5077625;28;20078;-58
2021/01/14 08:19:33;;;;;;;26.40;17.47;;;5.70;70.40;;;;;;5077890;28;20067;-57
2021/01/14 08:21:59;;;;;;;23.80;18.03;;;5.70;69.90;;;;;;5072826;28;20048;-56
2021/01/14 08:24:45;;;;;;;25.83;16.43;;;5.70;70.10;;;;;;5079724;28;20111;-56
2021/01/14 08:27:23;;;;;;;28.83;17.60;;;5.80;69.90;;;;;;5051352;28;20036;-57
2021/01/14 08:29:57;;;;;;;25.50;16.87;;;5.90;69.60;;;;;;5079244;28;20036;-57
2021/01/14 08:32:43;;;;;;;22.67;16.02;;;5.90;69.70;;;;;;5079534;28;20089;-56
2021/01/14 08:35:17;;;;;;;21.10;16.67;;;6.00;68.30;;;;;;5040501;28;20036;-57
2021/01/14 08:37:52;;;;;;;30.57;16.90;;;6.00;68.90;;;;;;5082040;28;20123;-58
2021/01/14 08:40:35;;;;;;;24.40;17.37;;;6.10;69.40;;;;;;5065946;28;20433;-56
2021/01/14 08:43:04;;;;;;;26.90;16.87;;;6.10;69.60;;;;;;5063511;28;20067;-57
2021/01/14 08:45:34;;;;;;;25.83;17.73;;;6.10;68.00;;;;;;5084734;28;20090;-56
2021/01/14 08:48:30;;;;;;;28.60;17.83;;;6.20;68.80;;;;;;5079199;28;20028;-57
2021/01/14 08:50:56;;;;;;;22.50;16.20;;;6.30;67.20;;;;;;5030134;28;20067;-57
2021/01/14 08:53:22;;;;;;;24.63;16.73;;;6.20;68.10;;;;;;5080367;28;20070;-56
2021/01/14 08:55:52;;;;;;;27.40;18.63;;;6.30;68.90;;;;;;5081474;28;20029;-58
2021/01/14 08:58:19;;;;;;;26.57;17.30;;;6.40;68.90;;;;;;5076824;28;20097;-58
2021/01/14 09:00:48;;;;;;;27.93;19.30;;;6.40;68.60;;;;;;5082693;28;20084;-56
2021/01/14 09:03:14;;;;;;;27.07;18.67;;;6.70;68.90;;;;;;5073218;28;20050;-55
2021/01/14 09:05:44;;;;;;;24.77;19.80;;;7.30;66.90;;;;;;5079698;28;20048;-53
2021/01/14 09:08:10;;;;;;;22.67;17.40;;;7.70;66.60;;;;;;5076060;28;20064;-53
2021/01/14 09:10:46;;;;;;;25.23;18.10;;;7.50;66.40;;;;;;5082516;28;20520;-52
2021/01/14 09:13:17;;;;;;;27.97;19.27;;;7.20;66.80;;;;;;5076513;28;20114;-56
2021/01/14 09:15:44;;;;;;;26.80;18.33;;;7.10;67.50;;;;;;5079302;28;20040;-55
2021/01/14 09:18:10;;;;;;;27.97;18.80;;;6.90;66.90;;;;;;5074815;28;20062;-56
2021/01/14 09:20:36;;;;;;;27.57;18.87;;;7.00;68.30;;;;;;5078659;28;20153;-55
2021/01/14 09:23:38;;;;;;;24.63;18.30;;;7.00;67.90;;;;;;5078883;28;20036;-56
2021/01/14 09:26:30;;;;;;;28.90;19.80;;;7.10;68.00;;;;;;5000402;28;20038;-57
2021/01/14 09:28:55;;;;;;;25.40;19.67;;;7.10;67.90;;;;;;5070831;28;20067;-56
2021/01/14 09:31:21;;;;;;;29.67;19.47;;;7.10;67.50;;;;;;5083515;28;20121;-56
2021/01/14 09:33:50;;;;;;;27.87;19.37;;;7.20;68.40;;;;;;5076186;28;20036;-57
2021/01/14 09:36:22;;;;;;;27.13;19.27;;;7.20;68.10;;;;;;5080755;28;20954;-57
2021/01/14 09:38:52;;;;;;;31.83;20.60;;;7.30;69.10;;;;;;5078512;28;20595;-57
2021/01/14 09:41:25;;;;;;;31.13;20.47;;;7.20;68.10;;;;;;5081798;28;20493;-57
2021/01/14 09:44:15;;;;;;;27.93;20.40;;;7.30;68.90;;;;;;5077814;28;20044;-56
2021/01/14 09:46:42;;;;;;;29.23;21.13;;;7.40;67.40;;;;;;5032884;28;20040;-55
2021/01/14 09:49:12;;;;;;;31.20;19.67;;;7.40;68.30;;;;;;5076229;28;20036;-54
2021/01/14 09:51:43;;;;;;;28.77;20.83;;;7.50;67.60;;;;;;5079673;28;20089;-55
2021/01/14 09:54:09;;;;;;;32.33;20.63;;;7.50;67.20;;;;;;5075922;28;20059;-56
2021/01/14 09:56:43;;;;;;;30.40;21.87;;;7.50;67.30;;;;;;5082989;28;20056;-56
2021/01/14 09:59:29;;;;;;;30.17;21.07;;;7.60;67.20;;;;;;5077251;28;20089;-56
2021/01/14 10:02:13;;;;;;;30.03;20.57;;;7.70;67.20;;;;;;5077463;28;20032;-52
2021/01/14 10:04:51;;;;;;;29.17;21.13;;;7.70;67.40;;;;;;5050195;28;20128;-53
2021/01/14 10:07:21;;;;;;;30.63;21.70;;;7.80;66.90;;;;;;5077507;28;20950;-53
2021/01/14 10:09:50;;;;;;;27.03;20.63;;;7.80;66.60;;;;;;5059261;28;20044;-55
2021/01/14 10:12:16;;;;;;;25.83;19.37;;;7.90;66.90;;;;;;5061211;28;20043;-55
2021/01/14 10:14:42;;;;;;;25.87;20.77;;;7.90;67.10;;;;;;5077846;28;20083;-57
2021/01/14 10:17:13;;;;;;;23.97;18.83;;;8.00;67.20;;;;;;5071865;28;20033;-56
2021/01/14 10:19:43;;;;;;;27.70;19.37;;;8.00;66.70;;;;;;5073516;28;20051;-57
2021/01/14 10:22:08;;;;;;;26.17;19.97;;;8.00;67.40;;;;;;5077431;28;20127;-55
2021/01/14 10:24:34;;;;;;;25.73;18.63;;;8.10;67.50;;;;;;5074927;28;20130;-56
2021/01/14 10:27:16;;;;;;;28.33;19.13;;;8.10;65.90;;;;;;5082361;28;20044;-56
2021/01/14 10:29:43;;;;;;;24.53;18.53;;;8.20;65.90;;;;;;5049786;28;20120;-57
2021/01/14 10:32:11;;;;;;;26.60;18.83;;;8.20;66.40;;;;;;5079731;28;20058;-56
2021/01/14 10:34:44;;;;;;;25.93;18.63;;;8.30;66.50;;;;;;5073913;28;20043;-55
2021/01/14 10:37:26;;;;;;;25.17;17.90;;;8.50;65.00;;;;;;5070813;28;20039;-56
2021/01/14 10:39:54;;;;;;;27.10;18.03;;;8.50;66.20;;;;;;5063406;28;20048;-54
2021/01/14 10:42:38;;;;;;;23.90;16.40;;;8.50;64.80;;;;;;5074962;28;20485;-57
2021/01/14 10:45:11;;;;;;;26.43;17.97;;;8.60;63.00;;;;;;5078631;28;20044;-57
2021/01/14 10:47:39;;;;;;;21.53;17.00;;;8.60;64.60;;;;;;5074007;28;20036;-55
2021/01/14 10:50:24;;;;;;;20.33;15.87;;;8.60;64.70;;;;;;5077000;28;20508;-56
2021/01/14 10:52:59;;;;;;;27.30;17.52;;;8.70;63.40;;;;;;5076328;28;20047;-56
2021/01/14 10:55:26;;;;;;;22.67;16.43;;;8.80;63.70;;;;;;5078153;28;20056;-56
2021/01/14 10:57:53;;;;;;;22.53;15.93;;;8.90;63.30;;;;;;5077565;28;20047;-56
2021/01/14 11:00:24;;;;;;;25.33;17.10;;;9.00;62.20;;;;;;5080701;28;20059;-56
2021/01/14 11:03:07;;;;;;;25.47;17.63;;;9.00;61.60;;;;;;5078606;28;20396;-52
2021/01/14 11:05:45;;;;;;;25.33;18.13;;;9.00;62.20;;;;;;5082463;28;20377;-55
2021/01/14 11:08:13;;;;;;;29.67;21.13;;;9.00;64.00;;;;;;5081029;28;20521;-55
2021/01/14 11:10:40;;;;;;;32.83;21.00;;;9.00;64.40;;;;;;5082879;28;20036;-56
2021/01/14 11:13:09;;;;;;;28.57;20.87;;;9.00;64.80;;;;;;5077435;28;20033;-54
2021/01/14 11:15:35;;;;;;;29.63;20.70;;;9.00;65.80;;;;;;5080500;28;20035;-55
2021/01/14 11:18:02;;;;;;;28.03;19.73;;;9.00;65.00;;;;;;5077084;28;20051;-56
2021/01/14 11:20:28;;;;;;;26.40;19.40;;;9.10;64.80;;;;;;5083842;28;21740;-57
2021/01/14 11:22:54;;;;;;;29.90;19.57;;;9.10;64.90;;;;;;5078321;28;20043;-56
2021/01/14 11:25:19;;;;;;;29.70;21.20;;;9.10;65.10;;;;;;5080427;28;20501;-56
2021/01/14 11:27:45;;;;;;;32.43;22.47;;;9.10;65.40;;;;;;5079096;28;20301;-56
2021/01/14 11:30:11;;;;;;;30.87;21.43;;;9.10;65.50;;;;;;5081048;28;20043;-56
2021/01/14 11:32:37;;;;;;;30.37;21.33;;;9.10;65.60;;;;;;5077263;28;20090;-55
2021/01/14 11:35:03;;;;;;;31.70;23.37;;;9.20;65.90;;;;;;5082386;28;20040;-55
2021/01/14 11:37:29;;;;;;;31.40;23.47;;;9.20;66.40;;;;;;5075775;28;20448;-52
2021/01/14 11:39:54;;;;;;;36.97;22.70;;;9.20;66.40;;;;;;5064559;28;20078;-55
2021/01/14 11:42:20;;;;;;;80.57;57.00;;;9.20;65.70;;;;;;5080765;28;20064;-60
2021/01/14 11:44:46;;;;;;;49.80;36.53;;;9.30;66.10;;;;;;5078509;28;20040;-59
2021/01/14 11:47:12;;;;;;;41.67;26.07;;;9.30;65.80;;;;;;5078197;28;20127;-60
2021/01/14 11:49:37;;;;;;;27.47;20.27;;;9.40;65.50;;;;;;5078051;28;20457;-61
2021/01/14 11:52:03;;;;;;;31.57;21.00;;;9.30;65.70;;;;;;5080861;28;20034;-57
2021/01/14 11:54:29;;;;;;;27.10;19.67;;;9.40;65.20;;;;;;5077023;28;20048;-60
2021/01/14 11:56:55;;;;;;;29.37;19.67;;;9.40;65.10;;;;;;5078966;28;20555;-61
2021/01/14 11:59:21;;;;;;;26.37;19.47;;;9.40;65.30;;;;;;5075480;28;20074;-61
2021/01/14 12:01:47;;;;;;;28.87;20.30;;;9.50;64.80;;;;;;5080984;28;20513;-60
2021/01/14 12:04:12;;;;;;;29.07;18.90;;;9.50;65.70;;;;;;5080054;28;20405;-60
2021/01/14 12:06:38;;;;;;;32.17;20.97;;;9.50;66.50;;;;;;5081689;28;20032;-61
2021/01/14 12:09:04;;;;;;;29.90;21.63;;;9.50;66.70;;;;;;5080065;28;20047;-61
2021/01/14 12:11:30;;;;;;;33.00;24.57;;;9.60;67.20;;;;;;5059846;28;20040;-60
2021/01/14 12:13:55;;;;;;;36.10;27.10;;;9.60;68.90;;;;;;5076903;28;20170;-56
2021/01/14 12:16:21;;;;;;;35.17;28.37;;;9.60;70.40;;;;;;5075803;28;20078;-56
2021/01/14 12:18:46;;;;;;;38.13;27.83;;;9.60;71.80;;;;;;5077366;28;20129;-55
2021/01/14 12:21:15;;;;;;;42.63;31.30;;;9.60;72.00;;;;;;5065644;28;20089;-55
2021/01/14 12:23:45;;;;;;;43.30;31.80;;;9.50;72.00;;;;;;5077081;28;20122;-55
2021/01/14 12:26:11;;;;;;;45.03;32.10;;;9.60;72.70;;;;;;5074316;28;20052;-55
2021/01/14 12:28:37;;;;;;;43.57;34.27;;;9.50;73.30;;;;;;5077747;28;22150;-52
2021/01/14 12:31:02;;;;;;;42.17;33.23;;;9.50;73.80;;;;;;5073762;28;20043;-55
2021/01/14 12:33:28;;;;;;;46.23;33.43;;;9.50;73.50;;;;;;5079130;28;20040;-53
2021/01/14 12:35:54;;;;;;;44.90;34.20;;;9.40;73.30;;;;;;5075966;28;20040;-53
2021/01/14 12:38:19;;;;;;;47.73;35.87;;;9.40;73.30;;;;;;5077519;28;20051;-55
2021/01/14 12:40:45;;;;;;;46.47;35.17;;;9.30;73.10;;;;;;5073814;28;20486;-55
2021/01/14 12:43:16;;;;;;;46.13;34.87;;;9.20;73.30;;;;;;5051791;28;20048;-54
2021/01/14 12:45:42;;;;;;;48.47;34.63;;;9.10;74.00;;;;;;5075278;28;20058;-54
2021/01/14 12:48:08;;;;;;;49.47;33.13;;;9.20;73.50;;;;;;5077280;28;20059;-54
2021/01/14 12:50:33;;;;;;;45.50;34.53;;;9.20;73.20;;;;;;5055329;28;20119;-53
2021/01/14 12:52:59;;;;;;;46.43;35.97;;;9.10;73.30;;;;;;5070090;28;20047;-52
2021/01/14 12:55:25;;;;;;;49.57;38.07;;;9.20;73.70;;;;;;5073950;28;20124;-51
2021/01/14 12:57:50;;;;;;;49.77;38.53;;;9.20;73.80;;;;;;5077657;28;20516;-54